Time;durP1;ratioP1;P1;durP2;ratioP2;P2;SDS_P1;SDS_P2;PMS_P1;PMS_P2;Temp;Humidity;BMP_temperature;BMP_pressure;BME280_temperature;BME280_humidity;BME280_pressure;Samples;Min_cycle;Max_cycle;Signal;HPM_P1;HPM_P2
2022/06/17 00:00:13;;;;;;;6.82;6.00;;;;;;;16.32;54.64;101802.38;679781;29;1157;-77
2022/06/17 00:00:33;;;;;;;6.45;5.72;;;;;;;16.27;54.47;101788.22;676798;29;1390;-77
2022/06/17 00:00:56;;;;;;;6.50;5.80;;;;;;;16.36;54.45;101804.22;681489;29;1562;-77
2022/06/17 00:01:18;;;;;;;6.32;5.72;;;;;;;16.30;54.27;101801.47;687222;28;1953;-76
2022/06/17 00:01:40;;;;;;;6.40;5.80;;;;;;;16.32;54.37;101799.75;682322;29;1155;-76
2022/06/17 00:02:01;;;;;;;6.30;5.80;;;;;;;16.27;54.42;101796.13;680015;29;816;-76
2022/06/17 00:02:32;;;;;;;6.18;5.65;;;;;;;16.25;54.30;101804.00;676860;29;1413;-77
2022/06/17 00:02:53;;;;;;;6.65;5.68;;;;;;;16.17;54.54;101793.25;682384;29;913;-76
2022/06/17 00:03:14;;;;;;;7.50;5.88;;;;;;;16.17;54.41;101801.16;682314;29;1043;-76
2022/06/17 00:03:37;;;;;;;7.37;6.13;;;;;;;16.18;54.38;101808.19;687689;28;1220;-76
2022/06/17 00:03:58;;;;;;;7.22;6.25;;;;;;;16.20;54.54;101815.25;687918;28;820;-77
2022/06/17 00:04:18;;;;;;;6.85;6.15;;;;;;;16.13;55.02;101803.69;687370;28;1522;-76
2022/06/17 00:04:39;;;;;;;6.50;5.90;;;;;;;16.10;54.88;101798.38;681660;29;1286;-76
2022/06/17 00:05:00;;;;;;;6.20;5.60;;;;;;;16.07;54.80;101796.56;684800;28;1988;-76
2022/06/17 00:05:21;;;;;;;6.30;5.70;;;;;;;16.09;54.92;101802.75;683945;28;1498;-76
2022/06/17 00:05:42;;;;;;;6.32;5.72;;;;;;;16.02;55.10;101787.66;686924;28;1159;-76
2022/06/17 00:06:04;;;;;;;6.50;5.90;;;;;;;16.09;54.98;101808.00;687256;28;1394;-77
2022/06/17 00:06:36;;;;;;;6.47;5.78;;;;;;;16.04;54.85;101796.47;684927;28;1700;-76
2022/06/17 00:07:01;;;;;;;8.13;5.68;;;;;;;16.11;54.95;101805.41;683695;28;800;-76
2022/06/17 00:07:22;;;;;;;7.22;5.50;;;;;;;16.09;55.05;101805.38;682535;29;915;-77
2022/06/17 00:07:44;;;;;;;6.20;5.60;;;;;;;16.05;55.19;101795.66;684561;28;1121;-76
2022/06/17 00:08:11;;;;;;;7.20;5.90;;;;;;;16.03;55.28;101792.97;679067;29;1596;-76
2022/06/17 00:08:34;;;;;;;8.18;6.10;;;;;;;16.09;55.35;101802.75;680772;29;1221;-76
2022/06/17 00:08:56;;;;;;;6.90;5.78;;;;;;;16.04;55.56;101799.09;679871;29;868;-76
2022/06/17 00:09:20;;;;;;;6.80;5.88;;;;;;;16.11;55.83;101800.16;677703;29;1825;-76
2022/06/17 00:09:41;;;;;;;6.50;5.75;;;;;;;16.07;55.50;101799.19;685292;28;1260;-77
2022/06/17 00:10:03;;;;;;;6.60;5.72;;;;;;;16.09;55.47;101796.59;682620;28;1403;-77
2022/06/17 00:10:26;;;;;;;6.47;5.75;;;;;;;16.08;55.29;101795.69;683878;28;1425;-76
2022/06/17 00:10:47;;;;;;;6.43;5.70;;;;;;;16.06;55.27;101791.25;687038;28;1355;-76
2022/06/17 00:11:20;;;;;;;6.60;5.90;;;;;;;16.05;55.41;101790.38;687123;28;1852;-77
2022/06/17 00:11:41;;;;;;;6.93;6.05;;;;;;;16.04;55.16;101793.84;684609;28;2044;-77
2022/06/17 00:12:06;;;;;;;6.95;6.20;;;;;;;16.01;55.36;101788.53;681817;29;1487;-77
2022/06/17 00:12:27;;;;;;;6.80;6.03;;;;;;;16.03;55.36;101785.06;682599;28;1120;-76
2022/06/17 00:12:47;;;;;;;6.20;5.60;;;;;;;16.11;55.44;101806.28;681510;29;1356;-76
2022/06/17 00:13:14;;;;;;;6.10;5.55;;;;;;;16.01;55.39;101789.44;681006;29;1666;-76
2022/06/17 00:13:34;;;;;;;6.10;5.50;;;;;;;16.04;55.17;101794.75;686194;28;1900;-77
2022/06/17 00:13:55;;;;;;;6.10;5.50;;;;;;;16.03;55.22;101792.06;685168;28;1236;-78
2022/06/17 00:14:20;;;;;;;6.73;5.60;;;;;;;16.05;55.24;101798.28;682304;28;1601;-77
2022/06/17 00:15:20;;;;;;;7.65;5.82;;;;;;;16.00;55.34;101803.41;679376;29;1650;-77
2022/06/17 00:15:41;;;;;;;7.50;5.50;;;;;;;16.00;55.44;101799.91;679750;29;1548;-78
2022/06/17 00:16:03;;;;;;;6.03;5.43;;;;;;;16.00;55.40;101799.91;681623;29;1868;-76
2022/06/17 00:16:25;;;;;;;6.10;5.50;;;;;;;16.04;55.44;101809.63;679702;28;1274;-78
2022/06/17 00:16:46;;;;;;;6.35;5.72;;;;;;;15.98;55.43;101801.63;682661;28;1176;-78
2022/06/17 00:17:08;;;;;;;6.57;5.65;;;;;;;15.97;55.33;101797.22;682409;28;1672;-78
2022/06/17 00:17:28;;;;;;;6.45;5.50;;;;;;;15.93;55.62;101790.09;682329;29;1062;-77
2022/06/17 00:17:53;;;;;;;5.90;5.30;;;;;;;15.97;55.50;101787.56;679818;29;1097;-77
2022/06/17 00:18:17;;;;;;;5.90;5.40;;;;;;;16.03;55.66;101807.88;680837;29;1942;-77
2022/06/17 00:18:38;;;;;;;6.13;5.60;;;;;;;15.92;55.71;101790.97;676422;29;1514;-78
2022/06/17 00:18:59;;;;;;;6.88;5.93;;;;;;;15.94;55.89;101791.88;682561;29;912;-78
2022/06/17 00:19:20;;;;;;;7.50;5.93;;;;;;;15.97;55.95;101802.50;681516;28;1468;-77
2022/06/17 00:19:41;;;;;;;8.68;6.45;;;;;;;15.96;55.89;101798.06;681491;28;1503;-77
2022/06/17 00:20:05;;;;;;;7.77;6.37;;;;;;;15.97;56.15;101799.84;679916;29;864;-77
2022/06/17 00:20:26;;;;;;;6.90;6.20;;;;;;;16.05;55.89;101811.44;679566;29;1297;-77
2022/06/17 00:20:48;;;;;;;6.20;5.60;;;;;;;15.96;55.90;101791.06;686463;28;1106;-77
2022/06/17 00:21:19;;;;;;;6.05;5.55;;;;;;;16.08;55.87;101805.34;682464;29;908;-77
2022/06/17 00:21:43;;;;;;;6.60;5.50;;;;;;;16.03;55.83;101798.25;684372;28;2089;-77
2022/06/17 00:22:04;;;;;;;7.75;5.30;;;;;;;15.99;55.63;101784.97;679856;29;1391;-78
2022/06/17 00:22:25;;;;;;;10.20;5.55;;;;;;;16.09;55.48;101802.75;681899;28;1855;-77
2022/06/17 00:22:46;;;;;;;10.80;5.50;;;;;;;16.09;55.63;101796.59;682985;28;1502;-77
2022/06/17 00:23:24;;;;;;;9.48;5.70;;;;;;;16.08;55.72;101789.53;684914;28;1526;-76
2022/06/17 00:23:45;;;;;;;6.50;5.90;;;;;;;16.10;55.92;101793.13;684623;28;1235;-77
2022/06/17 00:24:21;;;;;;;6.40;5.80;;;;;;;16.11;55.83;101792.25;681179;29;1919;-77
2022/06/17 00:24:41;;;;;;;7.00;5.88;;;;;;;16.07;55.29;101786.03;684381;28;1160;-77
2022/06/17 00:25:13;;;;;;;7.88;6.10;;;;;;;16.03;55.24;101778.91;679576;29;1903;-77
2022/06/17 00:25:36;;;;;;;6.88;5.70;;;;;;;16.10;55.20;101788.72;677868;29;1116;-78
2022/06/17 00:25:57;;;;;;;6.00;5.35;;;;;;;16.03;55.28;101784.19;677184;29;892;-78
2022/06/17 00:26:17;;;;;;;5.70;5.20;;;;;;;16.00;55.30;101776.22;676725;29;1169;-77
2022/06/17 00:26:39;;;;;;;6.13;5.22;;;;;;;15.99;55.26;101788.47;682869;28;1825;-78
2022/06/17 00:27:00;;;;;;;6.25;5.45;;;;;;;15.94;55.19;101770.81;686058;28;1793;-77
2022/06/17 00:27:20;;;;;;;7.20;5.50;;;;;;;15.95;55.42;101783.13;682288;28;1225;-78
2022/06/17 00:27:41;;;;;;;6.22;5.60;;;;;;;15.96;55.41;101783.16;687381;28;1231;-78
2022/06/17 00:28:03;;;;;;;6.00;5.40;;;;;;;15.91;55.34;101784.78;682189;28;1435;-77
2022/06/17 00:28:24;;;;;;;6.10;5.50;;;;;;;15.86;55.40;101781.19;679731;28;1361;-78
2022/06/17 00:28:44;;;;;;;7.88;5.80;;;;;;;15.84;55.58;101770.63;682284;28;1349;-77
2022/06/17 00:29:13;;;;;;;9.18;6.20;;;;;;;15.81;55.58;101770.56;682343;28;1487;-77
2022/06/17 00:29:33;;;;;;;7.97;6.03;;;;;;;15.81;55.52;101770.56;680279;29;1847;-78
2022/06/17 00:29:54;;;;;;;7.50;5.97;;;;;;;15.77;55.56;101771.34;679565;29;1485;-77
2022/06/17 00:30:21;;;;;;;7.90;5.93;;;;;;;15.86;55.69;101782.06;677899;29;1610;-77
2022/06/17 00:30:42;;;;;;;7.60;5.72;;;;;;;15.74;55.95;101768.66;679745;29;1662;-77
2022/06/17 00:31:02;;;;;;;6.60;5.70;;;;;;;15.87;55.87;101785.59;683118;28;1705;-77
2022/06/17 00:31:23;;;;;;;6.57;5.90;;;;;;;15.78;56.17;101770.47;679694;29;1143;-77
2022/06/17 00:31:44;;;;;;;6.80;6.20;;;;;;;15.75;56.00;101754.63;677158;29;1394;-77
2022/06/17 00:32:05;;;;;;;6.78;6.07;;;;;;;15.78;55.88;101765.22;680410;29;1915;-77
2022/06/17 00:32:26;;;;;;;6.85;6.10;;;;;;;15.78;56.03;101765.22;679622;29;1460;-77
2022/06/17 00:32:47;;;;;;;7.53;6.18;;;;;;;15.76;55.91;101761.66;682451;29;1104;-77
2022/06/17 00:33:08;;;;;;;7.43;6.38;;;;;;;15.81;56.00;101778.47;681811;28;1839;-78
2022/06/17 00:33:28;;;;;;;8.77;6.32;;;;;;;15.80;56.25;101774.03;684659;28;1002;-77
2022/06/17 00:33:49;;;;;;;8.70;6.20;;;;;;;15.75;56.02;101765.16;681956;29;1838;-77
2022/06/17 00:34:10;;;;;;;8.77;5.82;;;;;;;15.77;56.06;101768.72;682160;29;2105;-78
2022/06/17 00:34:31;;;;;;;6.90;5.72;;;;;;;15.71;55.98;101763.28;682107;29;1515;-77
2022/06/17 00:34:51;;;;;;;6.90;5.63;;;;;;;15.72;56.18;101760.72;684407;28;1188;-77
2022/06/17 00:35:13;;;;;;;6.97;6.27;;;;;;;15.68;56.15;101753.59;682403;28;1239;-77
2022/06/17 00:35:39;;;;;;;7.50;6.40;;;;;;;15.66;56.03;101757.06;678252;29;1359;-76
2022/06/17 00:36:00;;;;;;;7.22;6.30;;;;;;;15.77;56.37;101773.97;679619;29;884;-77
2022/06/17 00:36:20;;;;;;;6.63;6.00;;;;;;;15.69;56.27;101759.75;676823;29;1583;-78
2022/06/17 00:36:42;;;;;;;6.82;6.00;;;;;;;15.69;56.33;101762.38;679128;29;1611;-78
2022/06/17 00:37:06;;;;;;;6.88;6.18;;;;;;;15.65;56.21;101758.78;684796;28;1245;-78
2022/06/17 00:37:27;;;;;;;6.88;6.22;;;;;;;15.71;56.37;101768.56;685250;28;1340;-77
2022/06/17 00:37:47;;;;;;;6.63;6.03;;;;;;;15.71;56.18;101773.81;685105;28;1073;-78
2022/06/17 00:38:12;;;;;;;6.90;6.30;;;;;;;15.69;56.48;101775.53;681230;29;1621;-77
2022/06/17 00:38:35;;;;;;;8.48;6.40;;;;;;;15.68;56.32;101773.75;679062;29;1224;-78
2022/06/17 00:38:55;;;;;;;8.35;6.40;;;;;;;15.60;56.39;101769.22;684755;28;1529;-78
2022/06/17 00:39:23;;;;;;;6.80;5.90;;;;;;;15.62;56.46;101771.88;682894;28;1960;-77
2022/06/17 00:39:44;;;;;;;6.65;6.05;;;;;;;15.59;56.66;101759.53;681823;29;1390;-77
2022/06/17 00:40:16;;;;;;;7.50;6.50;;;;;;;15.68;56.52;101781.66;679760;29;1956;-77
2022/06/17 00:40:37;;;;;;;11.30;7.07;;;;;;;15.62;56.62;101775.38;685149;28;1089;-77
2022/06/17 00:41:11;;;;;;;9.90;6.68;;;;;;;15.56;56.53;101764.72;687623;28;1261;-77
2022/06/17 00:41:36;;;;;;;6.97;6.28;;;;;;;15.63;56.58;101779.78;684490;28;1213;-77
2022/06/17 00:42:18;;;;;;;6.75;6.10;;;;;;;15.58;56.82;101780.56;682006;29;1507;-78
2022/06/17 00:42:40;;;;;;;7.50;6.68;;;;;;;15.59;56.89;101779.69;683371;28;1163;-78
2022/06/17 00:43:04;;;;;;;8.15;6.75;;;;;;;15.59;56.69;101782.31;682326;29;1368;-78
2022/06/17 00:43:35;;;;;;;7.45;6.63;;;;;;;15.50;56.89;101767.22;681350;29;1657;-77
2022/06/17 00:44:00;;;;;;;8.27;6.55;;;;;;;15.56;56.81;101777.88;682507;29;851;-77
2022/06/17 00:44:36;;;;;;;8.10;6.55;;;;;;;15.57;56.82;101781.41;682208;29;1181;-78
2022/06/17 00:45:07;;;;;;;7.28;6.57;;;;;;;15.56;57.05;101785.75;679676;29;1978;-77
2022/06/17 00:45:37;;;;;;;7.20;6.50;;;;;;;15.54;56.71;101779.59;677009;29;1405;-78
2022/06/17 00:46:09;;;;;;;7.43;6.53;;;;;;;15.52;56.92;101775.13;677217;29;785;-77
2022/06/17 00:46:48;;;;;;;9.52;6.82;;;;;;;15.48;57.22;101766.28;679890;29;1139;-77
2022/06/17 00:47:33;;;;;;;8.80;7.30;;;;;;;15.59;57.21;101783.22;677117;29;1006;-77
2022/06/17 00:48:03;;;;;;;7.72;6.95;;;;;;;15.57;57.41;101765.63;676771;29;2153;-78
2022/06/17 00:48:29;;;;;;;8.13;6.65;;;;;;;15.55;57.15;101765.56;680659;29;837;-77
2022/06/17 00:49:10;;;;;;;7.45;6.65;;;;;;;15.58;57.26;101756.88;681957;29;1172;-77
2022/06/17 00:51:20;;;;;;;7.90;7.10;;;;;;;15.69;56.86;101759.75;687119;28;1165;-77
2022/06/17 00:51:46;;;;;;;7.70;7.00;;;;;;;15.62;56.62;101758.72;690005;28;1110;-77
2022/06/17 00:52:19;;;;;;;7.97;7.18;;;;;;;15.63;56.62;101764.00;684612;28;1331;-76
2022/06/17 00:52:45;;;;;;;8.05;7.10;;;;;;;15.62;56.62;101762.22;682865;28;1054;-77
2022/06/17 00:53:15;;;;;;;8.20;7.00;;;;;;;15.55;57.00;101747.16;676505;29;1564;-78
2022/06/17 00:53:44;;;;;;;9.07;7.10;;;;;;;15.63;56.99;101761.38;679632;29;1974;-77
2022/06/17 00:54:34;;;;;;;8.10;7.00;;;;;;;15.53;56.96;101742.72;681753;28;1358;-77
2022/06/17 00:55:02;;;;;;;7.53;6.72;;;;;;;15.53;56.79;101748.88;676828;29;1418;-78
2022/06/17 00:55:35;;;;;;;7.80;7.00;;;;;;;15.62;57.02;101761.38;676579;29;1947;-77
2022/06/17 00:56:11;;;;;;;7.63;6.93;;;;;;;15.59;56.57;101756.91;677407;29;1513;-77
2022/06/17 00:56:34;;;;;;;7.68;6.90;;;;;;;15.53;56.78;101755.88;678843;29;1136;-77
2022/06/17 00:56:56;;;;;;;7.50;6.80;;;;;;;15.55;56.63;101760.31;684814;28;914;-77
2022/06/17 00:57:29;;;;;;;7.32;6.60;;;;;;;15.62;56.39;101770.13;682195;29;1059;-77
2022/06/17 00:57:50;;;;;;;7.32;6.63;;;;;;;15.52;56.46;101752.38;679302;29;1025;-78
2022/06/17 00:58:25;;;;;;;7.80;7.10;;;;;;;15.52;56.46;101757.63;679394;28;1822;-77
2022/06/17 00:58:58;;;;;;;8.27;7.47;;;;;;;15.49;56.50;101768.97;681859;29;1730;-77
2022/06/17 00:59:19;;;;;;;8.25;7.43;;;;;;;15.45;56.82;101758.31;684026;28;1167;-78
2022/06/17 00:59:41;;;;;;;8.00;7.20;;;;;;;15.42;56.68;101755.63;684405;28;1457;-77
2022/06/17 01:00:07;;;;;;;8.00;7.20;;;;;;;15.46;56.64;101773.25;684992;28;1202;-77
2022/06/17 01:00:31;;;;;;;8.57;7.65;;;;;;;15.39;56.85;101766.97;680343;28;1328;-78
2022/06/17 01:00:55;;;;;;;9.05;7.40;;;;;;;15.37;56.90;101757.25;679677;29;1456;-77
2022/06/17 01:01:16;;;;;;;8.00;7.05;;;;;;;15.35;56.64;101768.63;681894;28;1633;-77
2022/06/17 01:01:41;;;;;;;7.50;6.80;;;;;;;15.25;56.83;101761.38;679635;29;1335;-77
2022/06/17 01:02:07;;;;;;;7.82;7.03;;;;;;;15.21;56.85;101754.25;682592;28;1324;-78
2022/06/17 01:02:35;;;;;;;8.20;7.22;;;;;;;15.22;57.01;101763.91;684711;28;1561;-77
2022/06/17 01:03:03;;;;;;;7.97;7.18;;;;;;;15.12;57.31;101746.13;682361;29;828;-77
2022/06/17 01:03:32;;;;;;;7.72;7.03;;;;;;;15.15;57.46;101764.59;679419;29;1654;-78
2022/06/17 01:03:57;;;;;;;7.80;7.10;;;;;;;15.06;57.28;101753.00;682386;29;909;-78
2022/06/17 01:04:50;;;;;;;7.88;7.18;;;;;;;15.11;57.45;101760.13;684701;28;1963;-79
2022/06/17 01:05:13;;;;;;;7.70;7.00;;;;;;;15.00;57.56;101755.47;681097;28;1958;-77
2022/06/17 01:05:54;;;;;;;8.00;7.20;;;;;;;15.09;57.61;101770.59;684981;28;1559;-78
2022/06/17 01:06:19;;;;;;;8.02;7.30;;;;;;;15.03;57.94;101768.69;683182;28;1677;-77
2022/06/17 01:06:48;;;;;;;7.60;7.00;;;;;;;15.00;57.99;101758.09;687011;28;1539;-77
2022/06/17 01:07:20;;;;;;;7.75;6.85;;;;;;;15.02;57.86;101761.66;684716;28;2008;-77
2022/06/17 01:07:47;;;;;;;8.90;7.30;;;;;;;14.98;57.76;101753.66;679379;29;1571;-77
2022/06/17 01:10:08;;;;;;;7.70;7.00;;;;;;;15.02;57.92;101766.94;687580;28;1223;-78
2022/06/17 01:10:30;;;;;;;7.57;6.88;;;;;;;14.99;57.96;101761.56;684942;28;1519;-78
2022/06/17 01:10:51;;;;;;;7.80;7.10;;;;;;;14.96;58.09;101755.34;681309;29;1336;-77
2022/06/17 01:11:13;;;;;;;8.30;7.50;;;;;;;15.00;58.35;101758.09;679330;29;1865;-78
2022/06/17 01:11:36;;;;;;;8.40;7.60;;;;;;;14.99;58.29;101756.31;680723;29;1841;-77
2022/06/17 01:12:01;;;;;;;8.30;7.50;;;;;;;14.96;58.23;101750.09;679479;29;1838;-77
2022/06/17 01:12:27;;;;;;;8.98;7.57;;;;;;;14.96;58.38;101745.72;678939;29;1468;-77
2022/06/17 01:13:06;;;;;;;8.55;7.55;;;;;;;15.00;58.31;101739.69;684254;28;1577;-78
2022/06/17 01:13:30;;;;;;;8.77;7.50;;;;;;;15.12;58.30;101756.63;683014;28;1052;-77
2022/06/17 01:13:51;;;;;;;10.60;7.70;;;;;;;15.02;58.53;101745.91;682203;29;1716;-78
2022/06/17 01:14:15;;;;;;;9.95;7.50;;;;;;;15.13;58.29;101763.66;682038;29;1704;-77
2022/06/17 01:14:40;;;;;;;8.05;6.70;;;;;;;15.08;58.14;101753.91;683854;28;1158;-78
2022/06/17 01:15:03;;;;;;;7.18;6.55;;;;;;;15.02;58.00;101742.34;685090;28;865;-77
2022/06/17 01:15:31;;;;;;;8.43;6.90;;;;;;;15.10;57.77;101751.31;684380;28;1213;-77
2022/06/17 01:15:53;;;;;;;8.73;7.07;;;;;;;15.05;57.50;101751.22;682606;28;2065;-77
2022/06/17 01:16:16;;;;;;;7.75;7.00;;;;;;;15.08;57.37;101756.53;679311;29;1985;-77
2022/06/17 01:16:41;;;;;;;8.35;7.47;;;;;;;15.01;57.44;101744.09;679571;29;1046;-78
2022/06/17 01:17:09;;;;;;;8.52;7.50;;;;;;;15.01;57.35;101749.34;681499;29;2009;-77
2022/06/17 01:17:31;;;;;;;8.50;7.60;;;;;;;14.99;57.53;101756.31;679491;29;1195;-77
2022/06/17 01:17:55;;;;;;;7.93;7.13;;;;;;;15.01;57.62;101762.47;679861;29;940;-77
2022/06/17 01:18:16;;;;;;;7.88;7.13;;;;;;;14.94;57.67;101750.06;678225;29;1607;-78
2022/06/17 01:18:44;;;;;;;8.70;7.22;;;;;;;14.89;57.70;101754.31;679679;29;1173;-77
2022/06/17 01:19:15;;;;;;;8.93;7.40;;;;;;;14.85;57.63;101755.06;682236;28;1232;-78
2022/06/17 01:19:45;;;;;;;7.85;7.03;;;;;;;14.85;57.84;101753.34;681647;29;1116;-77
2022/06/17 01:20:23;;;;;;;7.63;6.93;;;;;;;14.80;57.70;101753.22;679709;29;1976;-77
2022/06/17 01:20:46;;;;;;;7.50;6.90;;;;;;;14.74;58.10;101742.53;684916;28;1041;-77
2022/06/17 01:21:16;;;;;;;7.78;7.07;;;;;;;14.87;58.02;101777.03;679351;29;1408;-77
2022/06/17 01:21:42;;;;;;;7.32;6.65;;;;;;;14.78;58.01;101762.81;683738;28;1204;-78
2022/06/17 01:22:09;;;;;;;7.88;7.07;;;;;;;14.84;58.33;101777.84;685083;28;1150;-77
2022/06/17 01:22:41;;;;;;;8.00;7.20;;;;;;;14.79;58.31;101769.84;684731;28;969;-77
2022/06/17 01:23:10;;;;;;;7.80;7.00;;;;;;;14.72;58.21;101760.00;679158;29;1667;-78
2022/06/17 01:23:31;;;;;;;8.75;7.40;;;;;;;14.73;58.25;101766.13;680209;29;1372;-77
2022/06/17 01:23:52;;;;;;;8.70;7.70;;;;;;;14.70;58.15;101764.34;685071;28;880;-77
2022/06/17 01:24:14;;;;;;;8.38;7.57;;;;;;;14.66;58.13;101763.38;684604;28;1534;-78
2022/06/17 01:24:35;;;;;;;8.30;7.50;;;;;;;14.70;58.20;101769.59;681000;28;1085;-78
2022/06/17 01:25:05;;;;;;;8.05;7.25;;;;;;;14.75;58.18;101777.59;682938;28;1269;-77
2022/06/17 01:25:33;;;;;;;8.00;7.20;;;;;;;14.66;58.24;101772.97;679865;28;1640;-78
2022/06/17 01:25:54;;;;;;;8.10;7.30;;;;;;;14.66;58.08;101773.88;679186;29;1229;-77
2022/06/17 01:26:17;;;;;;;7.68;6.95;;;;;;;14.68;58.17;101773.91;679767;29;1694;-77
2022/06/17 01:26:37;;;;;;;8.13;7.22;;;;;;;14.62;58.26;101771.13;682665;29;1479;-77
2022/06/17 01:26:59;;;;;;;8.50;7.47;;;;;;;14.63;58.39;101775.53;682922;29;871;-77
2022/06/17 01:27:23;;;;;;;8.75;7.85;;;;;;;14.70;58.24;101782.72;679952;29;1942;-77
2022/06/17 01:27:57;;;;;;;8.20;7.40;;;;;;;14.61;58.28;101771.94;682563;29;1101;-77
2022/06/17 01:28:20;;;;;;;8.30;7.45;;;;;;;14.59;58.33;101768.41;680531;29;1590;-77
2022/06/17 01:28:40;;;;;;;8.40;7.55;;;;;;;14.62;58.47;101773.75;684776;28;1038;-77
2022/06/17 01:29:01;;;;;;;8.00;7.30;;;;;;;14.63;58.68;101767.66;683264;28;1514;-77
2022/06/17 01:29:22;;;;;;;7.63;6.93;;;;;;;14.68;58.67;101778.28;679614;29;1948;-77
2022/06/17 01:29:43;;;;;;;8.00;7.20;;;;;;;14.66;58.55;101773.88;682085;29;1282;-77
2022/06/17 01:30:07;;;;;;;8.35;7.47;;;;;;;14.64;58.62;101770.28;685356;28;1123;-77
2022/06/17 01:30:44;;;;;;;8.70;7.80;;;;;;;14.69;58.63;101773.03;683169;28;969;-77
2022/06/17 01:31:07;;;;;;;8.43;7.63;;;;;;;14.71;58.56;101781.88;680098;29;1352;-77
2022/06/17 01:31:29;;;;;;;8.10;7.30;;;;;;;14.72;58.65;101786.28;684940;28;2076;-78
2022/06/17 01:31:53;;;;;;;8.00;7.20;;;;;;;14.71;58.46;101781.88;682530;29;1884;-77
2022/06/17 01:32:19;;;;;;;8.00;7.30;;;;;;;14.66;58.55;101773.88;677463;29;1389;-77
2022/06/17 01:33:03;;;;;;;8.20;7.50;;;;;;;14.77;58.46;101795.16;680057;29;1132;-77
2022/06/17 01:33:27;;;;;;;8.38;7.50;;;;;;;14.67;58.57;101780.00;682266;29;1633;-77
2022/06/17 01:33:48;;;;;;;8.60;7.70;;;;;;;14.65;58.51;101781.72;682631;29;1669;-77
2022/06/17 01:34:11;;;;;;;8.15;7.28;;;;;;;14.66;58.57;101779.13;685148;28;1482;-76
2022/06/17 01:34:33;;;;;;;7.88;6.93;;;;;;;14.64;58.44;101782.56;681122;29;1298;-77
2022/06/17 01:34:54;;;;;;;8.05;6.93;;;;;;;14.66;58.71;101789.63;681074;28;1668;-78
2022/06/17 01:35:15;;;;;;;8.95;7.50;;;;;;;14.71;58.64;101792.41;684623;28;1968;-77
2022/06/17 01:35:54;;;;;;;8.75;7.85;;;;;;;14.73;58.89;101795.03;688429;28;1095;-78
2022/06/17 01:36:29;;;;;;;8.43;7.68;;;;;;;14.75;58.57;101794.25;683891;28;1799;-77
2022/06/17 01:36:50;;;;;;;8.13;7.43;;;;;;;14.72;58.70;101783.66;685063;28;1859;-77
2022/06/17 01:37:12;;;;;;;8.07;7.38;;;;;;;14.71;58.81;101781.88;679882;29;1334;-77
2022/06/17 01:37:33;;;;;;;7.65;6.97;;;;;;;14.71;58.86;101787.13;683064;28;1560;-77
2022/06/17 01:37:55;;;;;;;7.30;6.70;;;;;;;14.73;58.62;101795.03;682835;29;954;-78
2022/06/17 01:38:16;;;;;;;7.00;6.40;;;;;;;14.70;58.33;101785.38;680049;29;1126;-78
2022/06/17 01:38:39;;;;;;;7.40;6.70;;;;;;;14.72;58.43;101790.63;684461;28;1211;-78
2022/06/17 01:39:00;;;;;;;7.18;6.55;;;;;;;14.71;58.40;101786.22;685198;28;1365;-77
2022/06/17 01:39:22;;;;;;;7.28;6.63;;;;;;;14.69;58.53;101783.56;682948;29;835;-77
2022/06/17 01:39:43;;;;;;;7.53;6.80;;;;;;;14.68;58.42;101791.41;687129;28;1869;-77
2022/06/17 01:40:06;;;;;;;7.90;7.10;;;;;;;14.74;58.34;101802.97;685439;28;1485;-78
2022/06/17 01:40:28;;;;;;;8.00;7.20;;;;;;;14.66;58.37;101796.63;684884;28;1285;-77
2022/06/17 01:40:52;;;;;;;7.90;7.10;;;;;;;14.63;58.24;101789.53;688149;28;1287;-77
2022/06/17 01:41:14;;;;;;;7.70;6.90;;;;;;;14.63;58.58;101788.66;687959;28;1612;-77
2022/06/17 01:41:35;;;;;;;7.47;6.78;;;;;;;14.64;58.59;101791.31;686679;28;1171;-77
2022/06/17 01:41:56;;;;;;;7.70;7.00;;;;;;;14.61;58.46;101790.34;684930;28;1128;-78
2022/06/17 01:42:17;;;;;;;8.17;7.37;;;;;;;14.57;58.40;101789.38;685346;28;1233;-77
2022/06/17 01:42:39;;;;;;;8.23;7.40;;;;;;;14.60;58.75;101793.81;683344;28;1240;-78
2022/06/17 01:43:06;;;;;;;7.90;7.10;;;;;;;14.68;58.79;101802.81;682705;29;1169;-77
2022/06/17 01:44:11;;;;;;;7.85;7.07;;;;;;;14.60;58.91;101791.19;685297;28;1933;-78
2022/06/17 01:44:35;;;;;;;7.53;6.82;;;;;;;14.68;58.80;101802.81;672966;29;1230;-77
2022/06/17 01:44:56;;;;;;;7.65;6.90;;;;;;;14.62;58.71;101802.66;672337;29;2040;-77
2022/06/17 01:45:18;;;;;;;7.80;6.60;;;;;;;14.63;58.62;101799.19;670151;29;1989;-78
2022/06/17 01:45:42;;;;;;;8.07;6.70;;;;;;;14.62;58.58;101800.03;669119;29;1231;-78
2022/06/17 01:46:11;;;;;;;7.22;6.35;;;;;;;14.62;58.55;101802.66;672278;29;1396;-78
2022/06/17 01:46:36;;;;;;;7.20;6.50;;;;;;;14.59;58.75;101799.91;669646;29;1127;-77
2022/06/17 01:46:57;;;;;;;7.50;6.80;;;;;;;14.55;58.85;101798.94;672378;29;832;-78
2022/06/17 01:47:23;;;;;;;7.30;6.70;;;;;;;14.57;58.65;101805.13;679588;29;1504;-78
2022/06/17 01:47:45;;;;;;;6.90;6.30;;;;;;;14.59;58.72;101807.81;682549;29;1141;-78
2022/06/17 01:48:09;;;;;;;6.90;6.20;;;;;;;14.60;58.83;101799.06;679768;29;1420;-77
2022/06/17 01:48:35;;;;;;;6.90;6.20;;;;;;;14.58;58.83;101801.69;684255;28;1025;-76
2022/06/17 01:49:05;;;;;;;7.60;6.80;;;;;;;14.58;58.45;101800.78;682732;29;1055;-77
2022/06/17 01:49:55;;;;;;;7.97;7.18;;;;;;;14.56;58.72;101802.47;682563;28;1358;-77
2022/06/17 01:50:26;;;;;;;8.65;7.00;;;;;;;14.60;59.21;101801.69;682563;28;992;-77
2022/06/17 01:50:52;;;;;;;8.07;6.68;;;;;;;14.58;58.85;101787.63;682325;29;1442;-78
2022/06/17 01:51:16;;;;;;;7.53;6.82;;;;;;;14.56;59.01;101792.84;682545;29;1593;-77
2022/06/17 01:51:42;;;;;;;8.05;7.25;;;;;;;14.61;59.01;101800.84;679641;29;1434;-78
2022/06/17 01:52:12;;;;;;;7.80;7.00;;;;;;;14.67;59.04;101806.28;677429;29;2029;-77
2022/06/17 01:52:45;;;;;;;7.78;6.90;;;;;;;14.64;59.30;101800.94;680992;29;1215;-77
2022/06/17 01:53:13;;;;;;;8.55;6.90;;;;;;;14.66;59.05;101809.75;685032;28;1589;-77
2022/06/17 01:53:40;;;;;;;7.57;6.78;;;;;;;14.63;58.87;101796.53;685261;28;1175;-77
2022/06/17 01:54:08;;;;;;;7.90;7.10;;;;;;;14.59;58.75;101786.78;685338;28;1467;-77
2022/06/17 01:54:35;;;;;;;7.88;7.18;;;;;;;14.58;58.64;101791.16;680091;29;1180;-77
2022/06/17 01:55:18;;;;;;;7.82;7.13;;;;;;;14.62;59.11;101802.66;685464;28;753;-77
2022/06/17 01:55:52;;;;;;;7.65;6.95;;;;;;;14.58;59.09;101790.25;683793;28;1100;-76
2022/06/17 01:56:16;;;;;;;8.70;7.07;;;;;;;14.68;59.18;101801.94;681759;29;1523;-77
2022/06/17 01:56:40;;;;;;;11.15;7.07;;;;;;;14.64;59.23;101799.19;682692;29;1158;-77
2022/06/17 01:57:05;;;;;;;10.70;7.35;;;;;;;14.62;58.87;101798.28;682754;29;798;-77
2022/06/17 01:57:35;;;;;;;10.85;7.50;;;;;;;14.62;59.09;101798.28;685418;28;1749;-77
2022/06/17 01:58:02;;;;;;;8.90;7.45;;;;;;;14.65;58.97;101802.72;685402;28;2092;-77
2022/06/17 01:58:31;;;;;;;8.13;7.30;;;;;;;14.59;58.91;101782.44;684555;28;1128;-77
2022/06/17 01:59:02;;;;;;;7.93;7.13;;;;;;;14.62;58.88;101793.03;686686;28;1999;-77
2022/06/17 01:59:34;;;;;;;7.80;7.00;;;;;;;14.65;58.87;101800.09;682408;29;1645;-77
2022/06/17 02:00:07;;;;;;;7.80;7.10;;;;;;;14.61;58.92;101791.25;682446;29;1120;-78
2022/06/17 02:00:36;;;;;;;9.52;7.80;;;;;;;14.65;58.91;101803.59;679969;29;1694;-77
2022/06/17 02:01:01;;;;;;;9.30;7.65;;;;;;;14.62;58.78;101794.78;680187;29;1354;-77
2022/06/17 02:01:27;;;;;;;8.25;7.22;;;;;;;14.63;59.02;101794.78;681899;29;851;-78
2022/06/17 02:01:51;;;;;;;8.50;7.20;;;;;;;14.67;58.83;101801.03;677510;29;899;-77
2022/06/17 02:02:13;;;;;;;9.38;7.55;;;;;;;14.70;58.88;101800.22;680456;29;1649;-77
2022/06/17 02:02:36;;;;;;;9.38;7.60;;;;;;;14.72;59.09;101804.69;680902;29;1244;-78
2022/06/17 02:03:21;;;;;;;9.93;7.80;;;;;;;14.65;58.76;101787.84;682661;29;1408;-77
2022/06/17 02:03:49;;;;;;;10.13;8.00;;;;;;;14.68;58.81;101784.41;684986;28;1098;-77
2022/06/17 02:04:21;;;;;;;11.20;8.07;;;;;;;14.71;58.86;101792.41;682541;29;1034;-77
2022/06/17 02:04:46;;;;;;;10.07;7.40;;;;;;;14.73;58.85;101795.03;683308;28;1069;-77
2022/06/17 02:05:10;;;;;;;7.95;7.10;;;;;;;14.66;58.50;101779.13;682780;29;1971;-78
2022/06/17 02:05:34;;;;;;;7.93;7.13;;;;;;;14.74;58.81;101792.47;681742;28;1167;-77
2022/06/17 02:06:24;;;;;;;8.07;7.28;;;;;;;14.64;58.66;101775.56;679851;29;1457;-77